sensor_id;sensor_type;location;lat;lon;timestamp;P1;durP1;ratioP1;P2;durP2;ratioP2
10005;SDS011;5042;42.626;23.382;2022-08-26T00:01:14;3.25;;;1.92;;
10005;SDS011;5042;42.626;23.382;2022-08-26T00:03:42;3.05;;;2.15;;
10005;SDS011;5042;42.626;23.382;2022-08-26T00:06:09;8.73;;;2.40;;
10005;SDS011;5042;42.626;23.382;2022-08-26T00:08:37;5.40;;;2.70;;
10005;SDS011;5042;42.626;23.382;2022-08-26T00:11:04;3.58;;;2.20;;
10005;SDS011;5042;42.626;23.382;2022-08-26T00:13:31;5.50;;;2.88;;
10005;SDS011;5042;42.626;23.382;2022-08-26T00:15:58;3.63;;;1.67;;
10005;SDS011;5042;42.626;23.382;2022-08-26T00:18:25;3.67;;;2.33;;
10005;SDS011;5042;42.626;23.382;2022-08-26T00:20:54;5.72;;;2.33;;
10005;SDS011;5042;42.626;23.382;2022-08-26T00:23:20;7.40;;;2.30;;
10005;SDS011;5042;42.626;23.382;2022-08-26T00:25:47;4.32;;;2.30;;
10005;SDS011;5042;42.626;23.382;2022-08-26T00:28:14;5.43;;;2.25;;
10005;SDS011;5042;42.626;23.382;2022-08-26T00:30:42;2.35;;;2.15;;
10005;SDS011;5042;42.626;23.382;2022-08-26T00:33:12;3.35;;;1.75;;
10005;SDS011;5042;42.626;23.382;2022-08-26T00:35:39;2.60;;;2.10;;
10005;SDS011;5042;42.626;23.382;2022-08-26T00:38:07;5.18;;;2.10;;
10005;SDS011;5042;42.626;23.382;2022-08-26T00:40:35;3.65;;;2.42;;
10005;SDS011;5042;42.626;23.382;2022-08-26T00:43:05;7.55;;;2.30;;
10005;SDS011;5042;42.626;23.382;2022-08-26T00:45:33;3.95;;;2.10;;
10005;SDS011;5042;42.626;23.382;2022-08-26T00:48:05;5.40;;;2.50;;
10005;SDS011;5042;42.626;23.382;2022-08-26T00:50:34;5.50;;;2.00;;
10005;SDS011;5042;42.626;23.382;2022-08-26T00:53:04;4.85;;;1.88;;
10005;SDS011;5042;42.626;23.382;2022-08-26T00:55:46;3.33;;;2.00;;
10005;SDS011;5042;42.626;23.382;2022-08-26T00:58:16;3.13;;;2.03;;
10005;SDS011;5042;42.626;23.382;2022-08-26T01:00:43;7.68;;;2.30;;
10005;SDS011;5042;42.626;23.382;2022-08-26T01:03:10;4.97;;;2.25;;
10005;SDS011;5042;42.626;23.382;2022-08-26T01:05:38;2.72;;;2.03;;
10005;SDS011;5042;42.626;23.382;2022-08-26T01:08:07;2.63;;;1.83;;
10005;SDS011;5042;42.626;23.382;2022-08-26T01:10:34;6.20;;;1.92;;
10005;SDS011;5042;42.626;23.382;2022-08-26T01:13:02;2.70;;;1.60;;
10005;SDS011;5042;42.626;23.382;2022-08-26T01:15:41;3.42;;;2.03;;
10005;SDS011;5042;42.626;23.382;2022-08-26T01:18:10;4.65;;;2.00;;
10005;SDS011;5042;42.626;23.382;2022-08-26T01:20:40;4.38;;;1.90;;
10005;SDS011;5042;42.626;23.382;2022-08-26T01:23:17;3.00;;;2.08;;
10005;SDS011;5042;42.626;23.382;2022-08-26T01:25:46;4.25;;;2.10;;
10005;SDS011;5042;42.626;23.382;2022-08-26T01:28:17;4.53;;;1.42;;
10005;SDS011;5042;42.626;23.382;2022-08-26T01:30:48;3.42;;;1.85;;
10005;SDS011;5042;42.626;23.382;2022-08-26T01:33:19;2.10;;;1.90;;
10005;SDS011;5042;42.626;23.382;2022-08-26T01:35:51;4.88;;;2.25;;
10005;SDS011;5042;42.626;23.382;2022-08-26T01:38:20;2.08;;;1.90;;
10005;SDS011;5042;42.626;23.382;2022-08-26T01:40:47;2.38;;;2.00;;
10005;SDS011;5042;42.626;23.382;2022-08-26T01:43:15;6.13;;;1.98;;
10005;SDS011;5042;42.626;23.382;2022-08-26T01:45:45;6.18;;;2.08;;
10005;SDS011;5042;42.626;23.382;2022-08-26T01:48:14;4.88;;;1.95;;
10005;SDS011;5042;42.626;23.382;2022-08-26T01:50:43;4.95;;;2.00;;
10005;SDS011;5042;42.626;23.382;2022-08-26T01:53:11;4.45;;;1.52;;
10005;SDS011;5042;42.626;23.382;2022-08-26T01:55:44;3.10;;;2.05;;
10005;SDS011;5042;42.626;23.382;2022-08-26T01:58:14;4.68;;;2.08;;
10005;SDS011;5042;42.626;23.382;2022-08-26T02:00:46;4.60;;;2.65;;
10005;SDS011;5042;42.626;23.382;2022-08-26T02:03:13;4.63;;;1.98;;
10005;SDS011;5042;42.626;23.382;2022-08-26T02:05:42;4.07;;;1.70;;
10005;SDS011;5042;42.626;23.382;2022-08-26T02:08:09;4.18;;;2.03;;
10005;SDS011;5042;42.626;23.382;2022-08-26T02:10:36;3.97;;;2.00;;
10005;SDS011;5042;42.626;23.382;2022-08-26T02:13:05;4.30;;;1.60;;
10005;SDS011;5042;42.626;23.382;2022-08-26T02:15:32;3.53;;;1.73;;
10005;SDS011;5042;42.626;23.382;2022-08-26T02:17:59;7.10;;;2.97;;
10005;SDS011;5042;42.626;23.382;2022-08-26T02:20:29;2.15;;;1.92;;
10005;SDS011;5042;42.626;23.382;2022-08-26T02:22:56;3.67;;;1.95;;
10005;SDS011;5042;42.626;23.382;2022-08-26T02:25:24;6.07;;;2.05;;
10005;SDS011;5042;42.626;23.382;2022-08-26T02:27:53;2.95;;;1.90;;
10005;SDS011;5042;42.626;23.382;2022-08-26T02:30:23;6.50;;;2.28;;
10005;SDS011;5042;42.626;23.382;2022-08-26T02:32:52;6.13;;;2.20;;
10005;SDS011;5042;42.626;23.382;2022-08-26T02:35:21;5.10;;;2.05;;
10005;SDS011;5042;42.626;23.382;2022-08-26T02:37:48;9.55;;;2.30;;
10005;SDS011;5042;42.626;23.382;2022-08-26T02:40:17;4.55;;;1.92;;
10005;SDS011;5042;42.626;23.382;2022-08-26T02:42:45;3.25;;;1.77;;
10005;SDS011;5042;42.626;23.382;2022-08-26T02:45:13;3.75;;;1.98;;
10005;SDS011;5042;42.626;23.382;2022-08-26T02:47:41;4.25;;;1.92;;
10005;SDS011;5042;42.626;23.382;2022-08-26T02:50:08;2.97;;;2.20;;
10005;SDS011;5042;42.626;23.382;2022-08-26T02:52:35;3.97;;;2.67;;
10005;SDS011;5042;42.626;23.382;2022-08-26T02:55:02;4.30;;;1.70;;
10005;SDS011;5042;42.626;23.382;2022-08-26T02:57:29;4.03;;;1.90;;
10005;SDS011;5042;42.626;23.382;2022-08-26T02:59:56;6.05;;;2.35;;
10005;SDS011;5042;42.626;23.382;2022-08-26T03:02:24;7.55;;;1.70;;
10005;SDS011;5042;42.626;23.382;2022-08-26T03:04:53;3.63;;;1.88;;
10005;SDS011;5042;42.626;23.382;2022-08-26T03:07:19;3.03;;;1.92;;
10005;SDS011;5042;42.626;23.382;2022-08-26T03:09:46;2.63;;;1.70;;
10005;SDS011;5042;42.626;23.382;2022-08-26T03:12:13;9.55;;;2.72;;
10005;SDS011;5042;42.626;23.382;2022-08-26T03:14:40;5.32;;;2.47;;
10005;SDS011;5042;42.626;23.382;2022-08-26T03:17:06;3.22;;;1.90;;
10005;SDS011;5042;42.626;23.382;2022-08-26T03:19:33;2.85;;;1.58;;
10005;SDS011;5042;42.626;23.382;2022-08-26T03:22:01;6.32;;;2.30;;
10005;SDS011;5042;42.626;23.382;2022-08-26T03:24:29;10.50;;;2.20;;
10005;SDS011;5042;42.626;23.382;2022-08-26T03:26:55;2.80;;;1.90;;
10005;SDS011;5042;42.626;23.382;2022-08-26T03:29:22;5.72;;;1.80;;
10005;SDS011;5042;42.626;23.382;2022-08-26T03:32:07;4.90;;;1.92;;
10005;SDS011;5042;42.626;23.382;2022-08-26T03:34:34;4.53;;;2.08;;
10005;SDS011;5042;42.626;23.382;2022-08-26T03:37:03;2.53;;;1.63;;
10005;SDS011;5042;42.626;23.382;2022-08-26T03:39:29;5.15;;;2.08;;
10005;SDS011;5042;42.626;23.382;2022-08-26T03:41:56;6.13;;;1.90;;
10005;SDS011;5042;42.626;23.382;2022-08-26T03:44:23;7.82;;;2.13;;
10005;SDS011;5042;42.626;23.382;2022-08-26T03:46:50;2.70;;;1.88;;
10005;SDS011;5042;42.626;23.382;2022-08-26T03:49:17;3.30;;;1.92;;
10005;SDS011;5042;42.626;23.382;2022-08-26T03:51:44;8.15;;;1.88;;
10005;SDS011;5042;42.626;23.382;2022-08-26T03:54:12;3.17;;;2.13;;
10005;SDS011;5042;42.626;23.382;2022-08-26T03:56:39;5.95;;;2.10;;
10005;SDS011;5042;42.626;23.382;2022-08-26T03:59:06;3.88;;;1.88;;
10005;SDS011;5042;42.626;23.382;2022-08-26T04:01:33;4.00;;;2.00;;
10005;SDS011;5042;42.626;23.382;2022-08-26T04:04:00;4.00;;;1.85;;
10005;SDS011;5042;42.626;23.382;2022-08-26T04:06:28;6.25;;;2.30;;
10005;SDS011;5042;42.626;23.382;2022-08-26T04:08:57;3.35;;;1.90;;
10005;SDS011;5042;42.626;23.382;2022-08-26T04:11:27;6.95;;;2.30;;
10005;SDS011;5042;42.626;23.382;2022-08-26T04:13:56;5.07;;;1.73;;
10005;SDS011;5042;42.626;23.382;2022-08-26T04:16:25;6.82;;;2.50;;
10005;SDS011;5042;42.626;23.382;2022-08-26T04:18:53;4.13;;;1.90;;
10005;SDS011;5042;42.626;23.382;2022-08-26T04:21:20;4.63;;;2.20;;
10005;SDS011;5042;42.626;23.382;2022-08-26T04:23:47;3.60;;;1.77;;
10005;SDS011;5042;42.626;23.382;2022-08-26T04:26:15;4.40;;;2.05;;
10005;SDS011;5042;42.626;23.382;2022-08-26T04:28:43;7.00;;;2.15;;
10005;SDS011;5042;42.626;23.382;2022-08-26T04:31:10;4.68;;;2.05;;
10005;SDS011;5042;42.626;23.382;2022-08-26T04:33:38;3.38;;;2.25;;
10005;SDS011;5042;42.626;23.382;2022-08-26T04:36:05;5.10;;;2.10;;
10005;SDS011;5042;42.626;23.382;2022-08-26T04:38:33;5.40;;;2.38;;
10005;SDS011;5042;42.626;23.382;2022-08-26T04:41:00;6.38;;;2.72;;
10005;SDS011;5042;42.626;23.382;2022-08-26T04:43:27;2.83;;;2.10;;
10005;SDS011;5042;42.626;23.382;2022-08-26T04:45:57;7.93;;;2.60;;
10005;SDS011;5042;42.626;23.382;2022-08-26T04:48:25;4.32;;;2.80;;
10005;SDS011;5042;42.626;23.382;2022-08-26T04:50:53;7.43;;;2.80;;
10005;SDS011;5042;42.626;23.382;2022-08-26T04:53:20;5.85;;;2.30;;
10005;SDS011;5042;42.626;23.382;2022-08-26T04:55:47;3.70;;;2.20;;
10005;SDS011;5042;42.626;23.382;2022-08-26T04:58:14;3.60;;;2.42;;
10005;SDS011;5042;42.626;23.382;2022-08-26T05:00:42;3.13;;;2.55;;
10005;SDS011;5042;42.626;23.382;2022-08-26T05:03:11;7.93;;;2.40;;
10005;SDS011;5042;42.626;23.382;2022-08-26T05:05:38;2.53;;;2.33;;
10005;SDS011;5042;42.626;23.382;2022-08-26T05:08:06;5.13;;;2.30;;
10005;SDS011;5042;42.626;23.382;2022-08-26T05:10:37;2.97;;;2.05;;
10005;SDS011;5042;42.626;23.382;2022-08-26T05:13:05;4.65;;;2.60;;
10005;SDS011;5042;42.626;23.382;2022-08-26T05:15:32;5.35;;;2.33;;
10005;SDS011;5042;42.626;23.382;2022-08-26T05:17:59;6.07;;;2.92;;
10005;SDS011;5042;42.626;23.382;2022-08-26T05:20:28;2.50;;;2.30;;
10005;SDS011;5042;42.626;23.382;2022-08-26T05:22:57;5.35;;;3.20;;
10005;SDS011;5042;42.626;23.382;2022-08-26T05:25:24;4.38;;;2.55;;
10005;SDS011;5042;42.626;23.382;2022-08-26T05:27:51;4.43;;;2.22;;
10005;SDS011;5042;42.626;23.382;2022-08-26T05:30:18;9.52;;;2.88;;
10005;SDS011;5042;42.626;23.382;2022-08-26T05:32:46;6.57;;;2.80;;
10005;SDS011;5042;42.626;23.382;2022-08-26T05:35:13;5.00;;;2.70;;
10005;SDS011;5042;42.626;23.382;2022-08-26T05:37:41;4.18;;;2.38;;
10005;SDS011;5042;42.626;23.382;2022-08-26T05:40:08;5.22;;;2.58;;
10005;SDS011;5042;42.626;23.382;2022-08-26T05:42:36;4.38;;;2.45;;
10005;SDS011;5042;42.626;23.382;2022-08-26T05:45:03;4.50;;;2.58;;
10005;SDS011;5042;42.626;23.382;2022-08-26T05:47:30;5.70;;;2.72;;
10005;SDS011;5042;42.626;23.382;2022-08-26T05:49:57;6.18;;;2.65;;
10005;SDS011;5042;42.626;23.382;2022-08-26T05:52:24;2.80;;;2.35;;
10005;SDS011;5042;42.626;23.382;2022-08-26T05:54:53;2.88;;;2.55;;
10005;SDS011;5042;42.626;23.382;2022-08-26T05:57:19;9.25;;;2.83;;
10005;SDS011;5042;42.626;23.382;2022-08-26T05:59:46;5.97;;;2.85;;
10005;SDS011;5042;42.626;23.382;2022-08-26T06:02:13;5.63;;;2.95;;
10005;SDS011;5042;42.626;23.382;2022-08-26T06:04:40;8.35;;;3.08;;
10005;SDS011;5042;42.626;23.382;2022-08-26T06:07:07;6.25;;;3.03;;
10005;SDS011;5042;42.626;23.382;2022-08-26T06:09:35;7.65;;;3.00;;
10005;SDS011;5042;42.626;23.382;2022-08-26T06:12:03;8.82;;;3.00;;
10005;SDS011;5042;42.626;23.382;2022-08-26T06:14:31;7.32;;;3.35;;
10005;SDS011;5042;42.626;23.382;2022-08-26T06:16:57;5.63;;;3.00;;
10005;SDS011;5042;42.626;23.382;2022-08-26T06:19:24;6.43;;;3.42;;
10005;SDS011;5042;42.626;23.382;2022-08-26T06:21:51;6.57;;;2.65;;
10005;SDS011;5042;42.626;23.382;2022-08-26T06:24:18;4.57;;;2.78;;
10005;SDS011;5042;42.626;23.382;2022-08-26T06:27:05;8.77;;;2.60;;
10005;SDS011;5042;42.626;23.382;2022-08-26T06:29:34;7.65;;;3.35;;
10005;SDS011;5042;42.626;23.382;2022-08-26T06:32:02;3.35;;;2.70;;
10005;SDS011;5042;42.626;23.382;2022-08-26T06:34:30;6.60;;;3.20;;
10005;SDS011;5042;42.626;23.382;2022-08-26T06:36:58;8.30;;;2.80;;
10005;SDS011;5042;42.626;23.382;2022-08-26T06:39:27;5.95;;;3.00;;
10005;SDS011;5042;42.626;23.382;2022-08-26T06:41:54;6.03;;;2.65;;
10005;SDS011;5042;42.626;23.382;2022-08-26T06:44:23;4.78;;;2.90;;
10005;SDS011;5042;42.626;23.382;2022-08-26T06:46:49;4.65;;;2.60;;
10005;SDS011;5042;42.626;23.382;2022-08-26T06:49:16;8.10;;;3.15;;
10005;SDS011;5042;42.626;23.382;2022-08-26T06:51:43;8.18;;;3.22;;
10005;SDS011;5042;42.626;23.382;2022-08-26T06:54:10;10.70;;;3.55;;
10005;SDS011;5042;42.626;23.382;2022-08-26T06:56:39;6.88;;;3.10;;
10005;SDS011;5042;42.626;23.382;2022-08-26T06:59:08;7.47;;;2.70;;
10005;SDS011;5042;42.626;23.382;2022-08-26T07:01:39;6.78;;;2.70;;
10005;SDS011;5042;42.626;23.382;2022-08-26T07:04:09;5.10;;;2.88;;
10005;SDS011;5042;42.626;23.382;2022-08-26T07:06:38;6.05;;;2.60;;
10005;SDS011;5042;42.626;23.382;2022-08-26T07:09:06;6.20;;;3.55;;
10005;SDS011;5042;42.626;23.382;2022-08-26T07:11:35;5.70;;;2.72;;
10005;SDS011;5042;42.626;23.382;2022-08-26T07:14:02;5.20;;;2.85;;
10005;SDS011;5042;42.626;23.382;2022-08-26T07:16:30;3.85;;;2.70;;
10005;SDS011;5042;42.626;23.382;2022-08-26T07:18:58;4.80;;;2.67;;
10005;SDS011;5042;42.626;23.382;2022-08-26T07:21:25;7.63;;;3.20;;
10005;SDS011;5042;42.626;23.382;2022-08-26T07:23:52;4.40;;;2.70;;
10005;SDS011;5042;42.626;23.382;2022-08-26T07:26:20;6.00;;;2.95;;
10005;SDS011;5042;42.626;23.382;2022-08-26T07:28:49;10.20;;;3.10;;
10005;SDS011;5042;42.626;23.382;2022-08-26T07:31:18;5.97;;;2.50;;
10005;SDS011;5042;42.626;23.382;2022-08-26T07:33:46;8.30;;;3.95;;
10005;SDS011;5042;42.626;23.382;2022-08-26T07:36:15;4.03;;;2.53;;
10005;SDS011;5042;42.626;23.382;2022-08-26T07:38:43;4.25;;;2.40;;
10005;SDS011;5042;42.626;23.382;2022-08-26T07:41:12;4.30;;;2.50;;
10005;SDS011;5042;42.626;23.382;2022-08-26T07:43:40;5.38;;;2.90;;
10005;SDS011;5042;42.626;23.382;2022-08-26T07:46:07;5.78;;;2.80;;
10005;SDS011;5042;42.626;23.382;2022-08-26T07:48:35;6.70;;;3.00;;
10005;SDS011;5042;42.626;23.382;2022-08-26T07:51:02;5.22;;;2.70;;
10005;SDS011;5042;42.626;23.382;2022-08-26T07:53:30;5.80;;;2.65;;
10005;SDS011;5042;42.626;23.382;2022-08-26T07:55:59;2.85;;;2.33;;
10005;SDS011;5042;42.626;23.382;2022-08-26T07:58:25;4.47;;;2.00;;
10005;SDS011;5042;42.626;23.382;2022-08-26T08:00:53;3.22;;;2.38;;
10005;SDS011;5042;42.626;23.382;2022-08-26T08:03:20;3.22;;;2.40;;
10005;SDS011;5042;42.626;23.382;2022-08-26T08:05:47;4.28;;;2.30;;
10005;SDS011;5042;42.626;23.382;2022-08-26T08:08:14;3.33;;;1.95;;
10005;SDS011;5042;42.626;23.382;2022-08-26T08:10:43;4.85;;;2.13;;
10005;SDS011;5042;42.626;23.382;2022-08-26T08:13:10;4.72;;;1.90;;
10005;SDS011;5042;42.626;23.382;2022-08-26T08:15:37;4.45;;;1.75;;
10005;SDS011;5042;42.626;23.382;2022-08-26T08:18:04;5.10;;;2.20;;
10005;SDS011;5042;42.626;23.382;2022-08-26T08:20:32;3.67;;;1.92;;
10005;SDS011;5042;42.626;23.382;2022-08-26T08:22:59;5.25;;;1.98;;
10005;SDS011;5042;42.626;23.382;2022-08-26T08:25:28;3.60;;;1.95;;
10005;SDS011;5042;42.626;23.382;2022-08-26T08:27:56;5.00;;;2.20;;
10005;SDS011;5042;42.626;23.382;2022-08-26T08:30:23;3.85;;;1.95;;
10005;SDS011;5042;42.626;23.382;2022-08-26T08:32:51;6.22;;;2.13;;
10005;SDS011;5042;42.626;23.382;2022-08-26T08:35:18;3.95;;;1.80;;
10005;SDS011;5042;42.626;23.382;2022-08-26T08:37:46;3.42;;;1.58;;
10005;SDS011;5042;42.626;23.382;2022-08-26T08:40:15;5.70;;;2.15;;
10005;SDS011;5042;42.626;23.382;2022-08-26T08:42:43;6.47;;;2.42;;
10005;SDS011;5042;42.626;23.382;2022-08-26T08:45:14;4.70;;;2.15;;
10005;SDS011;5042;42.626;23.382;2022-08-26T08:47:46;3.30;;;2.30;;
10005;SDS011;5042;42.626;23.382;2022-08-26T08:50:23;2.75;;;2.00;;
10005;SDS011;5042;42.626;23.382;2022-08-26T08:52:54;3.05;;;1.75;;
10005;SDS011;5042;42.626;23.382;2022-08-26T08:55:29;4.40;;;2.00;;
10005;SDS011;5042;42.626;23.382;2022-08-26T08:58:06;5.20;;;2.10;;
10005;SDS011;5042;42.626;23.382;2022-08-26T09:00:41;3.17;;;1.80;;
10005;SDS011;5042;42.626;23.382;2022-08-26T09:03:17;2.80;;;1.90;;
10005;SDS011;5042;42.626;23.382;2022-08-26T09:05:54;2.75;;;2.05;;
10005;SDS011;5042;42.626;23.382;2022-08-26T09:08:24;6.55;;;2.10;;
10005;SDS011;5042;42.626;23.382;2022-08-26T09:10:56;2.78;;;1.90;;
10005;SDS011;5042;42.626;23.382;2022-08-26T09:13:24;3.53;;;2.25;;
10005;SDS011;5042;42.626;23.382;2022-08-26T09:15:55;2.97;;;2.00;;
10005;SDS011;5042;42.626;23.382;2022-08-26T09:18:38;4.97;;;2.15;;
10005;SDS011;5042;42.626;23.382;2022-08-26T09:21:21;3.25;;;2.45;;
10005;SDS011;5042;42.626;23.382;2022-08-26T09:23:49;4.05;;;2.20;;
10005;SDS011;5042;42.626;23.382;2022-08-26T09:26:17;4.13;;;2.20;;
10005;SDS011;5042;42.626;23.382;2022-08-26T09:28:47;3.65;;;2.33;;
10005;SDS011;5042;42.626;23.382;2022-08-26T09:31:22;2.60;;;2.40;;
10005;SDS011;5042;42.626;23.382;2022-08-26T09:34:01;3.20;;;2.30;;
10005;SDS011;5042;42.626;23.382;2022-08-26T09:36:33;3.08;;;2.35;;
10005;SDS011;5042;42.626;23.382;2022-08-26T09:39:02;2.53;;;2.00;;
10005;SDS011;5042;42.626;23.382;2022-08-26T09:41:30;4.07;;;2.47;;
10005;SDS011;5042;42.626;23.382;2022-08-26T09:44:10;4.32;;;2.10;;
10005;SDS011;5042;42.626;23.382;2022-08-26T09:46:43;4.05;;;2.40;;
10005;SDS011;5042;42.626;23.382;2022-08-26T09:49:25;3.75;;;2.35;;
10005;SDS011;5042;42.626;23.382;2022-08-26T09:52:12;5.53;;;2.28;;
10005;SDS011;5042;42.626;23.382;2022-08-26T09:54:43;3.58;;;2.40;;
10005;SDS011;5042;42.626;23.382;2022-08-26T09:57:15;4.50;;;2.40;;
10005;SDS011;5042;42.626;23.382;2022-08-26T09:59:44;6.93;;;2.78;;
10005;SDS011;5042;42.626;23.382;2022-08-26T10:02:18;4.70;;;2.75;;
10005;SDS011;5042;42.626;23.382;2022-08-26T10:04:55;2.95;;;2.17;;
10005;SDS011;5042;42.626;23.382;2022-08-26T10:07:33;3.78;;;3.40;;
10005;SDS011;5042;42.626;23.382;2022-08-26T10:10:05;3.95;;;3.33;;
10005;SDS011;5042;42.626;23.382;2022-08-26T10:12:36;5.22;;;2.67;;
10005;SDS011;5042;42.626;23.382;2022-08-26T10:15:08;4.40;;;2.80;;
10005;SDS011;5042;42.626;23.382;2022-08-26T10:17:39;4.63;;;2.60;;
10005;SDS011;5042;42.626;23.382;2022-08-26T10:20:13;3.85;;;2.88;;
10005;SDS011;5042;42.626;23.382;2022-08-26T10:22:43;5.50;;;3.50;;
10005;SDS011;5042;42.626;23.382;2022-08-26T10:25:17;5.13;;;2.90;;
10005;SDS011;5042;42.626;23.382;2022-08-26T10:27:50;8.55;;;4.22;;
10005;SDS011;5042;42.626;23.382;2022-08-26T10:30:26;5.63;;;3.50;;
10005;SDS011;5042;42.626;23.382;2022-08-26T10:33:03;3.72;;;3.22;;
10005;SDS011;5042;42.626;23.382;2022-08-26T10:35:32;7.20;;;3.30;;
10005;SDS011;5042;42.626;23.382;2022-08-26T10:38:03;3.85;;;3.55;;
10005;SDS011;5042;42.626;23.382;2022-08-26T10:40:39;5.82;;;3.80;;
10005;SDS011;5042;42.626;23.382;2022-08-26T10:43:13;5.22;;;2.92;;
10005;SDS011;5042;42.626;23.382;2022-08-26T10:45:45;4.22;;;3.47;;
10005;SDS011;5042;42.626;23.382;2022-08-26T10:48:17;3.88;;;3.40;;
10005;SDS011;5042;42.626;23.382;2022-08-26T10:50:49;4.00;;;3.15;;
10005;SDS011;5042;42.626;23.382;2022-08-26T10:53:19;3.53;;;3.15;;
10005;SDS011;5042;42.626;23.382;2022-08-26T10:55:50;6.78;;;4.53;;
10005;SDS011;5042;42.626;23.382;2022-08-26T11:01:21;9.07;;;3.50;;
10005;SDS011;5042;42.626;23.382;2022-08-26T11:04:14;3.90;;;3.20;;
10005;SDS011;5042;42.626;23.382;2022-08-26T11:06:47;6.97;;;3.15;;
10005;SDS011;5042;42.626;23.382;2022-08-26T11:12:09;5.32;;;3.22;;
10005;SDS011;5042;42.626;23.382;2022-08-26T11:18:43;7.32;;;3.58;;
10005;SDS011;5042;42.626;23.382;2022-08-26T11:24:45;6.00;;;4.07;;
10005;SDS011;5042;42.626;23.382;2022-08-26T11:30:36;6.75;;;3.50;;
10005;SDS011;5042;42.626;23.382;2022-08-26T11:36:27;4.75;;;3.47;;
10005;SDS011;5042;42.626;23.382;2022-08-26T11:39:21;8.60;;;3.95;;
10005;SDS011;5042;42.626;23.382;2022-08-26T11:41:53;4.25;;;3.50;;
10005;SDS011;5042;42.626;23.382;2022-08-26T11:44:25;5.65;;;3.80;;
10005;SDS011;5042;42.626;23.382;2022-08-26T11:46:55;4.50;;;3.30;;
10005;SDS011;5042;42.626;23.382;2022-08-26T11:49:27;5.13;;;3.35;;
10005;SDS011;5042;42.626;23.382;2022-08-26T11:52:12;4.50;;;3.20;;
10005;SDS011;5042;42.626;23.382;2022-08-26T11:57:31;4.60;;;3.53;;
10005;SDS011;5042;42.626;23.382;2022-08-26T11:59:59;11.60;;;3.45;;
10005;SDS011;5042;42.626;23.382;2022-08-26T12:02:28;3.42;;;3.13;;
10005;SDS011;5042;42.626;23.382;2022-08-26T12:04:55;3.58;;;3.28;;
10005;SDS011;5042;42.626;23.382;2022-08-26T12:07:23;7.13;;;3.42;;
10005;SDS011;5042;42.626;23.382;2022-08-26T12:09:54;5.28;;;3.47;;
10005;SDS011;5042;42.626;23.382;2022-08-26T12:12:25;6.82;;;3.65;;
10005;SDS011;5042;42.626;23.382;2022-08-26T12:15:05;5.80;;;3.22;;
10005;SDS011;5042;42.626;23.382;2022-08-26T12:17:35;4.60;;;3.30;;
10005;SDS011;5042;42.626;23.382;2022-08-26T12:20:03;4.22;;;3.03;;
10005;SDS011;5042;42.626;23.382;2022-08-26T12:22:31;4.13;;;3.10;;
10005;SDS011;5042;42.626;23.382;2022-08-26T12:25:00;4.88;;;3.58;;
10005;SDS011;5042;42.626;23.382;2022-08-26T12:27:33;7.60;;;3.50;;
10005;SDS011;5042;42.626;23.382;2022-08-26T12:30:05;3.92;;;3.08;;
10005;SDS011;5042;42.626;23.382;2022-08-26T12:32:35;4.32;;;3.35;;
10005;SDS011;5042;42.626;23.382;2022-08-26T12:35:06;4.95;;;2.97;;
10005;SDS011;5042;42.626;23.382;2022-08-26T12:37:34;5.88;;;3.47;;
10005;SDS011;5042;42.626;23.382;2022-08-26T12:43:03;3.63;;;3.17;;
10005;SDS011;5042;42.626;23.382;2022-08-26T12:45:32;5.15;;;3.20;;
10005;SDS011;5042;42.626;23.382;2022-08-26T12:48:02;3.40;;;2.40;;
10005;SDS011;5042;42.626;23.382;2022-08-26T12:50:32;2.75;;;2.55;;
10005;SDS011;5042;42.626;23.382;2022-08-26T12:53:02;4.72;;;3.08;;
10005;SDS011;5042;42.626;23.382;2022-08-26T12:55:33;7.28;;;2.70;;
10005;SDS011;5042;42.626;23.382;2022-08-26T12:58:11;4.18;;;2.17;;
10005;SDS011;5042;42.626;23.382;2022-08-26T13:00:47;2.90;;;2.05;;
10005;SDS011;5042;42.626;23.382;2022-08-26T13:03:36;2.30;;;1.90;;
10005;SDS011;5042;42.626;23.382;2022-08-26T13:06:23;3.80;;;2.20;;
10005;SDS011;5042;42.626;23.382;2022-08-26T13:08:54;3.00;;;2.15;;
10005;SDS011;5042;42.626;23.382;2022-08-26T13:11:23;2.63;;;1.90;;
10005;SDS011;5042;42.626;23.382;2022-08-26T13:13:55;2.13;;;1.90;;
10005;SDS011;5042;42.626;23.382;2022-08-26T13:16:23;2.58;;;2.03;;
10005;SDS011;5042;42.626;23.382;2022-08-26T13:18:51;3.50;;;2.30;;
10005;SDS011;5042;42.626;23.382;2022-08-26T13:21:22;2.75;;;1.90;;
10005;SDS011;5042;42.626;23.382;2022-08-26T13:23:51;2.45;;;2.25;;
10005;SDS011;5042;42.626;23.382;2022-08-26T13:26:19;2.47;;;1.70;;
10005;SDS011;5042;42.626;23.382;2022-08-26T13:28:47;4.82;;;1.85;;
10005;SDS011;5042;42.626;23.382;2022-08-26T13:31:16;2.58;;;1.42;;
10005;SDS011;5042;42.626;23.382;2022-08-26T13:33:43;2.55;;;1.25;;
10005;SDS011;5042;42.626;23.382;2022-08-26T13:36:10;1.77;;;1.67;;
10005;SDS011;5042;42.626;23.382;2022-08-26T13:38:37;3.40;;;2.08;;
10005;SDS011;5042;42.626;23.382;2022-08-26T13:41:04;2.55;;;1.35;;
10005;SDS011;5042;42.626;23.382;2022-08-26T13:43:31;1.77;;;1.27;;
10005;SDS011;5042;42.626;23.382;2022-08-26T13:45:58;3.55;;;1.58;;
10005;SDS011;5042;42.626;23.382;2022-08-26T13:48:27;2.17;;;1.50;;
10005;SDS011;5042;42.626;23.382;2022-08-26T13:50:54;2.38;;;1.35;;
10005;SDS011;5042;42.626;23.382;2022-08-26T13:53:21;4.07;;;1.90;;
10005;SDS011;5042;42.626;23.382;2022-08-26T13:55:48;2.67;;;1.58;;
10005;SDS011;5042;42.626;23.382;2022-08-26T13:58:15;1.55;;;1.45;;
10005;SDS011;5042;42.626;23.382;2022-08-26T14:00:42;3.33;;;2.20;;
10005;SDS011;5042;42.626;23.382;2022-08-26T14:03:09;3.10;;;1.65;;
10005;SDS011;5042;42.626;23.382;2022-08-26T14:05:37;1.88;;;1.77;;
10005;SDS011;5042;42.626;23.382;2022-08-26T14:08:04;3.28;;;1.80;;
10005;SDS011;5042;42.626;23.382;2022-08-26T14:10:31;2.85;;;1.90;;
10005;SDS011;5042;42.626;23.382;2022-08-26T14:13:00;3.33;;;1.95;;
10005;SDS011;5042;42.626;23.382;2022-08-26T14:15:27;2.58;;;1.40;;
10005;SDS011;5042;42.626;23.382;2022-08-26T14:17:54;1.73;;;1.50;;
10005;SDS011;5042;42.626;23.382;2022-08-26T14:20:22;2.40;;;1.50;;
10005;SDS011;5042;42.626;23.382;2022-08-26T14:22:52;3.63;;;1.85;;
10005;SDS011;5042;42.626;23.382;2022-08-26T14:25:20;2.40;;;1.95;;
10005;SDS011;5042;42.626;23.382;2022-08-26T14:27:48;3.25;;;1.60;;
10005;SDS011;5042;42.626;23.382;2022-08-26T14:30:16;1.55;;;1.45;;
10005;SDS011;5042;42.626;23.382;2022-08-26T14:32:44;2.35;;;1.38;;
10005;SDS011;5042;42.626;23.382;2022-08-26T14:35:14;2.42;;;1.92;;
10005;SDS011;5042;42.626;23.382;2022-08-26T14:37:43;1.73;;;1.63;;
10005;SDS011;5042;42.626;23.382;2022-08-26T14:40:12;1.85;;;1.30;;
10005;SDS011;5042;42.626;23.382;2022-08-26T14:42:42;3.47;;;2.72;;
10005;SDS011;5042;42.626;23.382;2022-08-26T14:45:11;3.40;;;2.65;;
10005;SDS011;5042;42.626;23.382;2022-08-26T14:47:42;3.00;;;2.10;;
10005;SDS011;5042;42.626;23.382;2022-08-26T14:50:09;2.05;;;1.77;;
10005;SDS011;5042;42.626;23.382;2022-08-26T14:52:36;2.28;;;2.05;;
10005;SDS011;5042;42.626;23.382;2022-08-26T14:55:18;2.25;;;1.90;;
10005;SDS011;5042;42.626;23.382;2022-08-26T14:57:45;2.67;;;2.05;;
10005;SDS011;5042;42.626;23.382;2022-08-26T15:00:12;2.05;;;1.70;;
10005;SDS011;5042;42.626;23.382;2022-08-26T15:02:39;2.45;;;2.00;;
10005;SDS011;5042;42.626;23.382;2022-08-26T15:05:06;2.50;;;1.70;;
10005;SDS011;5042;42.626;23.382;2022-08-26T15:07:35;4.82;;;1.90;;
10005;SDS011;5042;42.626;23.382;2022-08-26T15:10:02;4.13;;;2.25;;
10005;SDS011;5042;42.626;23.382;2022-08-26T15:12:31;2.08;;;1.60;;
10005;SDS011;5042;42.626;23.382;2022-08-26T15:14:58;5.38;;;2.25;;
10005;SDS011;5042;42.626;23.382;2022-08-26T15:17:24;4.43;;;1.52;;
10005;SDS011;5042;42.626;23.382;2022-08-26T15:19:52;1.58;;;1.48;;
10005;SDS011;5042;42.626;23.382;2022-08-26T15:22:19;3.72;;;1.77;;
10005;SDS011;5042;42.626;23.382;2022-08-26T15:24:46;1.98;;;1.88;;
10005;SDS011;5042;42.626;23.382;2022-08-26T15:27:13;2.78;;;1.80;;